sensor_id;sensor_type;location;lat;lon;timestamp;pressure;altitude;pressure_sealevel;temperature;humidity
36092;BME280;22147;52.388;13.390;2022-11-21T00:01:52;99938.31;;;-3.85;100.00
36092;BME280;22147;52.388;13.390;2022-11-21T00:04:22;99931.53;;;-3.82;100.00
36092;BME280;22147;52.388;13.390;2022-11-21T00:06:52;99925.03;;;-3.81;100.00
36092;BME280;22147;52.388;13.390;2022-11-21T00:09:22;99929.16;;;-3.79;100.00
36092;BME280;22147;52.388;13.390;2022-11-21T00:11:52;99917.44;;;-3.79;100.00
36092;BME280;22147;52.388;13.390;2022-11-21T00:14:22;99909.38;;;-3.74;100.00
36092;BME280;22147;52.388;13.390;2022-11-21T00:16:52;99908.88;;;-3.71;100.00
36092;BME280;22147;52.388;13.390;2022-11-21T00:19:26;99899.16;;;-3.67;100.00
36092;BME280;22147;52.388;13.390;2022-11-21T00:21:56;99898.66;;;-3.64;100.00
36092;BME280;22147;52.388;13.390;2022-11-21T00:24:26;99891.31;;;-3.63;100.00
36092;BME280;22147;52.388;13.390;2022-11-21T00:26:56;99892.47;;;-3.59;100.00
36092;BME280;22147;52.388;13.390;2022-11-21T00:29:29;99884.59;;;-3.56;100.00
36092;BME280;22147;52.388;13.390;2022-11-21T00:31:59;99894.16;;;-3.53;100.00
36092;BME280;22147;52.388;13.390;2022-11-21T00:34:30;99893.06;;;-3.52;100.00
36092;BME280;22147;52.388;13.390;2022-11-21T00:37:00;99893.06;;;-3.52;100.00
36092;BME280;22147;52.388;13.390;2022-11-21T00:39:30;99890.91;;;-3.50;100.00
36092;BME280;22147;52.388;13.390;2022-11-21T00:42:00;99878.16;;;-3.50;100.00
36092;BME280;22147;52.388;13.390;2022-11-21T00:44:30;99889.84;;;-3.49;100.00
36092;BME280;22147;52.388;13.390;2022-11-21T00:47:00;99881.44;;;-3.48;100.00
36092;BME280;22147;52.388;13.390;2022-11-21T00:49:30;99881.75;;;-3.44;100.00
36092;BME280;22147;52.388;13.390;2022-11-21T00:52:00;99877.69;;;-3.41;100.00
36092;BME280;22147;52.388;13.390;2022-11-21T00:54:31;99879.91;;;-3.38;100.00
36092;BME280;22147;52.388;13.390;2022-11-21T00:57:01;99873.16;;;-3.36;100.00
36092;BME280;22147;52.388;13.390;2022-11-21T00:59:31;99869.63;;;-3.36;100.00
36092;BME280;22147;52.388;13.390;2022-11-21T01:02:01;99869.34;;;-3.35;100.00
36092;BME280;22147;52.388;13.390;2022-11-21T01:04:33;99865.88;;;-3.30;100.00
36092;BME280;22147;52.388;13.390;2022-11-21T01:07:04;99868.59;;;-3.30;100.00
36092;BME280;22147;52.388;13.390;2022-11-21T01:09:34;99865.56;;;-3.34;100.00
36092;BME280;22147;52.388;13.390;2022-11-21T01:12:04;99870.19;;;-3.34;100.00
36092;BME280;22147;52.388;13.390;2022-11-21T01:14:35;99868.28;;;-3.34;100.00
36092;BME280;22147;52.388;13.390;2022-11-21T01:17:05;99874.50;;;-3.38;100.00
36092;BME280;22147;52.388;13.390;2022-11-21T01:19:35;99869.88;;;-3.38;100.00
36092;BME280;22147;52.388;13.390;2022-11-21T01:22:06;99872.59;;;-3.38;100.00
36092;BME280;22147;52.388;13.390;2022-11-21T01:24:36;99866.34;;;-3.38;100.00
36092;BME280;22147;52.388;13.390;2022-11-21T01:27:06;99865.50;;;-3.39;100.00
36092;BME280;22147;52.388;13.390;2022-11-21T01:29:36;99863.88;;;-3.40;100.00
36092;BME280;22147;52.388;13.390;2022-11-21T01:32:06;99858.19;;;-3.38;100.00
36092;BME280;22147;52.388;13.390;2022-11-21T01:34:36;99859.00;;;-3.38;100.00
36092;BME280;22147;52.388;13.390;2022-11-21T01:37:06;99851.44;;;-3.36;100.00
36092;BME280;22147;52.388;13.390;2022-11-21T01:39:37;99858.78;;;-3.31;100.00
36092;BME280;22147;52.388;13.390;2022-11-21T01:42:12;99855.50;;;-3.33;100.00
36092;BME280;22147;52.388;13.390;2022-11-21T01:44:51;99853.31;;;-3.36;100.00
36092;BME280;22147;52.388;13.390;2022-11-21T01:47:23;99853.06;;;-3.35;100.00
36092;BME280;22147;52.388;13.390;2022-11-21T01:49:52;99853.31;;;-3.36;100.00
36092;BME280;22147;52.388;13.390;2022-11-21T01:52:31;99857.66;;;-3.35;100.00
36092;BME280;22147;52.388;13.390;2022-11-21T01:55:10;99855.19;;;-3.37;100.00
36092;BME280;22147;52.388;13.390;2022-11-21T01:57:47;99853.00;;;-3.40;100.00
36092;BME280;22147;52.388;13.390;2022-11-21T02:00:26;99850.34;;;-3.35;100.00
36092;BME280;22147;52.388;13.390;2022-11-21T02:03:10;99843.28;;;-3.36;100.00
36092;BME280;22147;52.388;13.390;2022-11-21T02:05:42;99843.53;;;-3.37;100.00
36092;BME280;22147;52.388;13.390;2022-11-21T02:08:18;99848.66;;;-3.41;100.00
36092;BME280;22147;52.388;13.390;2022-11-21T02:14:14;99843.19;;;-3.46;100.00
36092;BME280;22147;52.388;13.390;2022-11-21T02:16:45;99840.50;;;-3.41;100.00
36092;BME280;22147;52.388;13.390;2022-11-21T02:20:06;99834.78;;;-3.44;100.00
36092;BME280;22147;52.388;13.390;2022-11-21T02:26:09;99818.22;;;-3.43;100.00
36092;BME280;22147;52.388;13.390;2022-11-21T02:28:40;99819.06;;;-3.42;100.00
36092;BME280;22147;52.388;13.390;2022-11-21T02:31:11;99809.25;;;-3.43;100.00
36092;BME280;22147;52.388;13.390;2022-11-21T02:33:41;99813.63;;;-3.42;100.00
36092;BME280;22147;52.388;13.390;2022-11-21T02:36:41;99807.63;;;-3.44;100.00
36092;BME280;22147;52.388;13.390;2022-11-21T02:39:26;99801.16;;;-3.38;100.00
36092;BME280;22147;52.388;13.390;2022-11-21T02:45:17;99798.19;;;-3.37;100.00
36092;BME280;22147;52.388;13.390;2022-11-21T02:47:55;99789.78;;;-3.35;100.00
36092;BME280;22147;52.388;13.390;2022-11-21T02:50:37;99793.28;;;-3.40;100.00
36092;BME280;22147;52.388;13.390;2022-11-21T02:53:15;99783.22;;;-3.39;100.00
36092;BME280;22147;52.388;13.390;2022-11-21T02:55:46;99783.84;;;-3.32;100.00
36092;BME280;22147;52.388;13.390;2022-11-21T02:58:14;99793.31;;;-3.35;100.00
36092;BME280;22147;52.388;13.390;2022-11-21T03:00:42;99788.72;;;-3.34;100.00
36092;BME280;22147;52.388;13.390;2022-11-21T03:03:15;99792.25;;;-3.34;100.00
36092;BME280;22147;52.388;13.390;2022-11-21T03:05:45;99789.28;;;-3.32;100.00
36092;BME280;22147;52.388;13.390;2022-11-21T03:08:15;99783.88;;;-3.27;100.00
36092;BME280;22147;52.388;13.390;2022-11-21T03:10:45;99783.88;;;-3.27;100.00
36092;BME280;22147;52.388;13.390;2022-11-21T03:13:15;99793.13;;;-3.28;100.00
36092;BME280;22147;52.388;13.390;2022-11-21T03:15:44;99784.41;;;-3.30;100.00
36092;BME280;22147;52.388;13.390;2022-11-21T03:18:14;99789.00;;;-3.31;100.00
36092;BME280;22147;52.388;13.390;2022-11-21T03:20:44;99786.81;;;-3.34;100.00
36092;BME280;22147;52.388;13.390;2022-11-21T03:23:14;99786.81;;;-3.34;100.00
36092;BME280;22147;52.388;13.390;2022-11-21T03:25:43;99787.88;;;-3.35;100.00
36092;BME280;22147;52.388;13.390;2022-11-21T03:28:13;99795.78;;;-3.33;100.00
36092;BME280;22147;52.388;13.390;2022-11-21T03:30:43;99802.56;;;-3.31;100.00
36092;BME280;22147;52.388;13.390;2022-11-21T03:33:13;99796.38;;;-3.26;100.00
36092;BME280;22147;52.388;13.390;2022-11-21T03:35:42;99797.44;;;-3.27;100.00
36092;BME280;22147;52.388;13.390;2022-11-21T03:38:12;99800.16;;;-3.27;100.00
36092;BME280;22147;52.388;13.390;2022-11-21T03:40:45;99800.16;;;-3.32;100.00
36092;BME280;22147;52.388;13.390;2022-11-21T03:43:15;99796.09;;;-3.30;100.00
36092;BME280;22147;52.388;13.390;2022-11-21T03:45:46;99796.91;;;-3.29;100.00
36092;BME280;22147;52.388;13.390;2022-11-21T03:48:16;99802.31;;;-3.29;100.00
36092;BME280;22147;52.388;13.390;2022-11-21T03:50:46;99797.97;;;-3.30;100.00
36092;BME280;22147;52.388;13.390;2022-11-21T03:53:16;99799.84;;;-3.31;100.00
36092;BME280;22147;52.388;13.390;2022-11-21T03:55:45;99798.81;;;-3.30;100.00
36092;BME280;22147;52.388;13.390;2022-11-21T03:58:15;99798.00;;;-3.25;100.00
36092;BME280;22147;52.388;13.390;2022-11-21T04:00:46;99790.44;;;-3.23;100.00
36092;BME280;22147;52.388;13.390;2022-11-21T04:03:16;99787.72;;;-3.23;100.00
36092;BME280;22147;52.388;13.390;2022-11-21T04:05:45;99789.34;;;-3.22;100.00
36092;BME280;22147;52.388;13.390;2022-11-21T04:08:16;99791.81;;;-3.20;100.00
36092;BME280;22147;52.388;13.390;2022-11-21T04:10:50;99785.56;;;-3.21;100.00
36092;BME280;22147;52.388;13.390;2022-11-21T04:13:20;99800.25;;;-3.17;100.00
36092;BME280;22147;52.388;13.390;2022-11-21T04:15:50;99791.00;;;-3.16;100.00
36092;BME280;22147;52.388;13.390;2022-11-21T04:18:18;99797.84;;;-3.13;100.00
36092;BME280;22147;52.388;13.390;2022-11-21T04:20:47;99786.69;;;-3.12;100.00
36092;BME280;22147;52.388;13.390;2022-11-21T04:23:15;99798.13;;;-3.10;100.00
36092;BME280;22147;52.388;13.390;2022-11-21T04:25:44;99789.41;;;-3.12;100.00
36092;BME280;22147;52.388;13.390;2022-11-21T04:28:12;99785.34;;;-3.09;100.00
36092;BME280;22147;52.388;13.390;2022-11-21T04:30:40;99783.97;;;-3.12;100.00
36092;BME280;22147;52.388;13.390;2022-11-21T04:33:12;99792.41;;;-3.13;100.00
36092;BME280;22147;52.388;13.390;2022-11-21T04:35:43;99797.00;;;-3.14;100.00
36092;BME280;22147;52.388;13.390;2022-11-21T04:38:14;99791.53;;;-3.19;100.00
36092;BME280;22147;52.388;13.390;2022-11-21T04:40:44;99796.13;;;-3.24;100.00
36092;BME280;22147;52.388;13.390;2022-11-21T04:43:14;99793.13;;;-3.28;100.00
36092;BME280;22147;52.388;13.390;2022-11-21T04:45:44;99803.13;;;-3.29;100.00
36092;BME280;22147;52.388;13.390;2022-11-21T04:48:13;99800.69;;;-3.30;100.00
36092;BME280;22147;52.388;13.390;2022-11-21T04:50:44;99801.50;;;-3.30;100.00
36092;BME280;22147;52.388;13.390;2022-11-21T04:53:14;99803.66;;;-3.32;100.00
36092;BME280;22147;52.388;13.390;2022-11-21T04:55:44;99801.19;;;-3.33;100.00
36092;BME280;22147;52.388;13.390;2022-11-21T04:58:14;99805.00;;;-3.34;100.00
36092;BME280;22147;52.388;13.390;2022-11-21T05:00:44;99804.16;;;-3.35;100.00
36092;BME280;22147;52.388;13.390;2022-11-21T05:03:14;99800.06;;;-3.37;100.00
36092;BME280;22147;52.388;13.390;2022-11-21T05:05:44;99805.19;;;-3.41;100.00
36092;BME280;22147;52.388;13.390;2022-11-21T05:08:14;99794.88;;;-3.44;100.00
36092;BME280;22147;52.388;13.390;2022-11-21T05:10:46;99803.53;;;-3.47;100.00
36092;BME280;22147;52.388;13.390;2022-11-21T05:13:35;99807.56;;;-3.50;100.00
36092;BME280;22147;52.388;13.390;2022-11-21T05:16:05;99803.16;;;-3.56;100.00
36092;BME280;22147;52.388;13.390;2022-11-21T05:18:35;99808.81;;;-3.62;100.00
36092;BME280;22147;52.388;13.390;2022-11-21T05:21:06;99809.34;;;-3.65;100.00
36092;BME280;22147;52.388;13.390;2022-11-21T05:23:36;99816.09;;;-3.68;100.00
36092;BME280;22147;52.388;13.390;2022-11-21T05:26:06;99809.81;;;-3.69;100.00
36092;BME280;22147;52.388;13.390;2022-11-21T05:28:36;99808.78;;;-3.67;100.00
36092;BME280;22147;52.388;13.390;2022-11-21T05:31:06;99805.81;;;-3.66;100.00
36092;BME280;22147;52.388;13.390;2022-11-21T05:33:36;99809.34;;;-3.65;100.00
36092;BME280;22147;52.388;13.390;2022-11-21T05:36:06;99817.78;;;-3.62;100.00
36092;BME280;22147;52.388;13.390;2022-11-21T05:38:36;99809.94;;;-3.58;100.00
36092;BME280;22147;52.388;13.390;2022-11-21T05:41:06;99815.69;;;-3.55;100.00
36092;BME280;22147;52.388;13.390;2022-11-21T05:43:36;99810.00;;;-3.53;100.00
36092;BME280;22147;52.388;13.390;2022-11-21T05:46:20;99804.84;;;-3.50;100.00
36092;BME280;22147;52.388;13.390;2022-11-21T05:48:52;99795.41;;;-3.47;100.00
36092;BME280;22147;52.388;13.390;2022-11-21T05:51:22;99809.78;;;-3.46;100.00
36092;BME280;22147;52.388;13.390;2022-11-21T05:53:51;99790.25;;;-3.43;100.00
36092;BME280;22147;52.388;13.390;2022-11-21T05:56:21;99800.06;;;-3.42;100.00
36092;BME280;22147;52.388;13.390;2022-11-21T05:58:54;99798.97;;;-3.41;100.00
36092;BME280;22147;52.388;13.390;2022-11-21T06:01:25;99797.63;;;-3.39;100.00
36092;BME280;22147;52.388;13.390;2022-11-21T06:04:13;99799.28;;;-3.38;100.00
36092;BME280;22147;52.388;13.390;2022-11-21T06:06:43;99798.19;;;-3.37;100.00
36092;BME280;22147;52.388;13.390;2022-11-21T06:09:13;99794.41;;;-3.36;100.00
36092;BME280;22147;52.388;13.390;2022-11-21T06:11:42;99807.72;;;-3.34;100.00
36092;BME280;22147;52.388;13.390;2022-11-21T06:14:12;99818.03;;;-3.36;100.00
36092;BME280;22147;52.388;13.390;2022-11-21T06:16:42;99812.06;;;-3.33;100.00
36092;BME280;22147;52.388;13.390;2022-11-21T06:19:12;99812.38;;;-3.30;100.00
36092;BME280;22147;52.388;13.390;2022-11-21T06:21:42;99813.75;;;-3.27;100.00
36092;BME280;22147;52.388;13.390;2022-11-21T06:24:11;99816.78;;;-3.23;100.00
36092;BME280;22147;52.388;13.390;2022-11-21T06:26:44;99813.53;;;-3.20;100.00
36092;BME280;22147;52.388;13.390;2022-11-21T06:29:14;99810.31;;;-3.17;100.00
36092;BME280;22147;52.388;13.390;2022-11-21T06:31:44;99821.47;;;-3.14;100.00
36092;BME280;22147;52.388;13.390;2022-11-21T06:34:13;99822.31;;;-3.13;100.00
36092;BME280;22147;52.388;13.390;2022-11-21T06:36:41;99812.81;;;-3.11;100.00
36092;BME280;22147;52.388;13.390;2022-11-21T06:39:13;99813.38;;;-3.09;100.00
36092;BME280;22147;52.388;13.390;2022-11-21T06:41:43;99816.34;;;-3.05;100.00
36092;BME280;22147;52.388;13.390;2022-11-21T06:44:19;99815.28;;;-3.04;100.00
36092;BME280;22147;52.388;13.390;2022-11-21T06:46:48;99818.59;;;-2.97;100.00
36092;BME280;22147;52.388;13.390;2022-11-21T06:49:19;99813.72;;;-2.95;100.00
36092;BME280;22147;52.388;13.390;2022-11-21T06:51:48;99817.25;;;-2.94;100.00
36092;BME280;22147;52.388;13.390;2022-11-21T06:54:16;99825.16;;;-2.93;100.00
36092;BME280;22147;52.388;13.390;2022-11-21T06:56:45;99827.88;;;-2.93;100.00
36092;BME280;22147;52.388;13.390;2022-11-21T06:59:13;99833.03;;;-2.96;100.00
36092;BME280;22147;52.388;13.390;2022-11-21T07:01:41;99830.31;;;-2.96;100.00
36092;BME280;22147;52.388;13.390;2022-11-21T07:04:10;99837.38;;;-2.95;100.00
36092;BME280;22147;52.388;13.390;2022-11-21T07:06:38;99838.50;;;-2.91;100.00
36092;BME280;22147;52.388;13.390;2022-11-21T07:09:07;99843.38;;;-2.93;100.00
36092;BME280;22147;52.388;13.390;2022-11-21T07:11:57;99855.59;;;-2.91;100.00
36092;BME280;22147;52.388;13.390;2022-11-21T07:14:47;99852.06;;;-2.91;100.00
36092;BME280;22147;52.388;13.390;2022-11-21T07:17:17;99853.69;;;-2.90;100.00
36092;BME280;22147;52.388;13.390;2022-11-21T07:19:47;99858.06;;;-2.89;100.00
36092;BME280;22147;52.388;13.390;2022-11-21T07:22:18;99860.78;;;-2.89;100.00
36092;BME280;22147;52.388;13.390;2022-11-21T07:24:48;99859.75;;;-2.83;100.00
36092;BME280;22147;52.388;13.390;2022-11-21T07:27:18;99861.38;;;-2.82;100.00
36092;BME280;22147;52.388;13.390;2022-11-21T07:29:48;99859.78;;;-2.78;100.00
36092;BME280;22147;52.388;13.390;2022-11-21T07:32:18;99857.09;;;-2.73;100.00
36092;BME280;22147;52.388;13.390;2022-11-21T07:34:48;99875.03;;;-2.72;100.00
36092;BME280;22147;52.388;13.390;2022-11-21T07:37:18;99869.09;;;-2.69;100.00
36092;BME280;22147;52.388;13.390;2022-11-21T07:39:49;99862.06;;;-2.64;100.00
36092;BME280;22147;52.388;13.390;2022-11-21T07:42:19;99864.81;;;-2.59;100.00
36092;BME280;22147;52.388;13.390;2022-11-21T07:44:49;99874.06;;;-2.55;100.00
36092;BME280;22147;52.388;13.390;2022-11-21T07:47:19;99877.09;;;-2.52;100.00
36092;BME280;22147;52.388;13.390;2022-11-21T07:49:49;99876.56;;;-2.49;100.00
36092;BME280;22147;52.388;13.390;2022-11-21T07:52:19;99873.31;;;-2.46;100.00
36092;BME280;22147;52.388;13.390;2022-11-21T07:54:49;99876.03;;;-2.46;100.00
36092;BME280;22147;52.388;13.390;2022-11-21T07:57:19;99882.56;;;-2.41;100.00
36092;BME280;22147;52.388;13.390;2022-11-21T07:59:50;99879.03;;;-2.47;100.00
36092;BME280;22147;52.388;13.390;2022-11-21T08:02:23;99884.94;;;-2.55;100.00
36092;BME280;22147;52.388;13.390;2022-11-21T08:04:55;99887.63;;;-2.60;100.00
36092;BME280;22147;52.388;13.390;2022-11-21T08:07:25;99892.78;;;-2.64;100.00
36092;BME280;22147;52.388;13.390;2022-11-21T08:09:55;99889.19;;;-2.70;100.00
36092;BME280;22147;52.388;13.390;2022-11-21T08:12:26;99893.25;;;-2.72;100.00
36092;BME280;22147;52.388;13.390;2022-11-21T08:14:56;99897.81;;;-2.78;100.00
36092;BME280;22147;52.388;13.390;2022-11-21T08:17:26;99895.09;;;-2.78;100.00
36092;BME280;22147;52.388;13.390;2022-11-21T08:19:56;99900.59;;;-2.73;100.00
36092;BME280;22147;52.388;13.390;2022-11-21T08:22:28;99896.06;;;-2.57;100.00
36092;BME280;22147;52.388;13.390;2022-11-21T08:24:59;99895.06;;;-2.46;100.00
36092;BME280;22147;52.388;13.390;2022-11-21T08:27:29;99907.44;;;-2.28;100.00
36092;BME280;22147;52.388;13.390;2022-11-21T08:29:59;99904.16;;;-2.30;100.00
36092;BME280;22147;52.388;13.390;2022-11-21T08:32:29;99911.19;;;-2.34;100.00
36092;BME280;22147;52.388;13.390;2022-11-21T08:35:00;99913.97;;;-2.23;100.00
36092;BME280;22147;52.388;13.390;2022-11-21T08:37:30;99912.69;;;-2.16;100.00
36092;BME280;22147;52.388;13.390;2022-11-21T08:40:02;99913.75;;;-2.17;100.00
36092;BME280;22147;52.388;13.390;2022-11-21T08:42:35;99922.72;;;-2.16;100.00
36092;BME280;22147;52.388;13.390;2022-11-21T08:45:07;99931.66;;;-2.21;100.00
36092;BME280;22147;52.388;13.390;2022-11-21T08:47:37;99928.94;;;-2.26;100.00
36092;BME280;22147;52.388;13.390;2022-11-21T08:50:08;99941.56;;;-2.47;100.00
36092;BME280;22147;52.388;13.390;2022-11-21T08:52:38;99941.59;;;-2.42;100.00
36092;BME280;22147;52.388;13.390;2022-11-21T08:55:07;99941.28;;;-2.46;100.00
36092;BME280;22147;52.388;13.390;2022-11-21T08:57:39;99938.31;;;-2.44;100.00
36092;BME280;22147;52.388;13.390;2022-11-21T09:00:11;99940.81;;;-2.37;100.00
36092;BME280;22147;52.388;13.390;2022-11-21T09:02:42;99937.81;;;-2.41;100.00
36092;BME280;22147;52.388;13.390;2022-11-21T09:05:12;99936.38;;;-2.49;100.00
36092;BME280;22147;52.388;13.390;2022-11-21T09:07:42;99933.66;;;-2.49;100.00
36092;BME280;22147;52.388;13.390;2022-11-21T09:10:13;99941.03;;;-2.44;100.00
36092;BME280;22147;52.388;13.390;2022-11-21T09:12:41;99947.28;;;-2.43;100.00
36092;BME280;22147;52.388;13.390;2022-11-21T09:15:10;99936.69;;;-2.45;100.00
36092;BME280;22147;52.388;13.390;2022-11-21T09:18:01;99949.25;;;-2.39;100.00
36092;BME280;22147;52.388;13.390;2022-11-21T09:20:42;99946.72;;;-2.46;100.00
36092;BME280;22147;52.388;13.390;2022-11-21T09:23:15;99952.00;;;-2.34;100.00
36092;BME280;22147;52.388;13.390;2022-11-21T09:25:45;99951.09;;;-2.44;100.00
36092;BME280;22147;52.388;13.390;2022-11-21T09:28:14;99967.44;;;-2.39;100.00
36092;BME280;22147;52.388;13.390;2022-11-21T09:30:42;99966.59;;;-2.45;100.00
36092;BME280;22147;52.388;13.390;2022-11-21T09:33:13;99965.44;;;-2.54;100.00
36092;BME280;22147;52.388;13.390;2022-11-21T09:35:45;99967.66;;;-2.46;100.00
36092;BME280;22147;52.388;13.390;2022-11-21T09:38:16;99970.69;;;-2.48;100.00
36092;BME280;22147;52.388;13.390;2022-11-21T09:41:14;99968.75;;;-2.47;100.00
36092;BME280;22147;52.388;13.390;2022-11-21T09:47:34;99973.25;;;-2.63;100.00
36092;BME280;22147;52.388;13.390;2022-11-21T09:53:04;99979.88;;;-2.54;100.00
36092;BME280;22147;52.388;13.390;2022-11-21T09:56:01;99983.09;;;-2.57;100.00
36092;BME280;22147;52.388;13.390;2022-11-21T09:58:44;99985.56;;;-2.55;100.00
36092;BME280;22147;52.388;13.390;2022-11-21T10:01:19;99986.94;;;-2.53;100.00
36092;BME280;22147;52.388;13.390;2022-11-21T10:03:50;99986.25;;;-2.70;100.00
36092;BME280;22147;52.388;13.390;2022-11-21T10:06:29;99988.19;;;-2.66;100.00
36092;BME280;22147;52.388;13.390;2022-11-21T10:09:30;99984.34;;;-2.70;100.00
36092;BME280;22147;52.388;13.390;2022-11-21T10:12:53;99985.72;;;-2.67;100.00
36092;BME280;22147;52.388;13.390;2022-11-21T10:17:21;99991.22;;;-2.62;100.00
36092;BME280;22147;52.388;13.390;2022-11-21T10:20:32;99989.22;;;-2.72;100.00
36092;BME280;22147;52.388;13.390;2022-11-21T10:26:31;99982.97;;;-2.72;100.00
36092;BME280;22147;52.388;13.390;2022-11-21T10:31:42;99999.84;;;-2.70;100.00
36092;BME280;22147;52.388;13.390;2022-11-21T10:34:34;100006.16;;;-2.64;100.00
36092;BME280;22147;52.388;13.390;2022-11-21T10:37:33;100020.84;;;-2.60;100.00
36092;BME280;22147;52.388;13.390;2022-11-21T10:40:38;100011.94;;;-2.83;100.00
36092;BME280;22147;52.388;13.390;2022-11-21T10:46:26;100011.19;;;-2.78;100.00
36092;BME280;22147;52.388;13.390;2022-11-21T10:49:04;100010.34;;;-2.79;100.00
36092;BME280;22147;52.388;13.390;2022-11-21T10:52:08;100007.91;;;-2.80;100.00
36092;BME280;22147;52.388;13.390;2022-11-21T10:57:50;100011.53;;;-2.70;100.00
36092;BME280;22147;52.388;13.390;2022-11-21T11:00:26;100013.22;;;-2.91;100.00
36092;BME280;22147;52.388;13.390;2022-11-21T11:03:00;100014.00;;;-2.95;100.00
36092;BME280;22147;52.388;13.390;2022-11-21T11:05:37;100023.59;;;-2.88;100.00
36092;BME280;22147;52.388;13.390;2022-11-21T11:08:13;100026.56;;;-2.89;100.00
36092;BME280;22147;52.388;13.390;2022-11-21T11:11:04;100017.69;;;-2.79;100.00
36092;BME280;22147;52.388;13.390;2022-11-21T11:13:58;100026.59;;;-2.84;100.00
36092;BME280;22147;52.388;13.390;2022-11-21T11:16:35;100026.03;;;-2.86;100.00
36092;BME280;22147;52.388;13.390;2022-11-21T11:21:45;100028.41;;;-2.95;100.00
36092;BME280;22147;52.388;13.390;2022-11-21T11:29:19;100042.75;;;-2.99;100.00
36092;BME280;22147;52.388;13.390;2022-11-21T11:37:40;100046.91;;;-2.92;100.00
36092;BME280;22147;52.388;13.390;2022-11-21T11:40:39;100046.16;;;-2.87;100.00
36092;BME280;22147;52.388;13.390;2022-11-21T11:50:08;100040.16;;;-2.89;100.00
36092;BME280;22147;52.388;13.390;2022-11-21T11:52:52;100033.16;;;-2.80;100.00
36092;BME280;22147;52.388;13.390;2022-11-21T11:55:59;100015.84;;;-2.74;100.00
36092;BME280;22147;52.388;13.390;2022-11-21T12:05:05;100016.38;;;-2.77;100.00
36092;BME280;22147;52.388;13.390;2022-11-21T12:08:18;100026.00;;;-2.64;100.00
36092;BME280;22147;52.388;13.390;2022-11-21T12:18:50;100026.59;;;-2.57;100.00
36092;BME280;22147;52.388;13.390;2022-11-21T12:21:36;100025.44;;;-2.66;100.00
36092;BME280;22147;52.388;13.390;2022-11-21T12:24:09;100013.94;;;-2.73;100.00
36092;BME280;22147;52.388;13.390;2022-11-21T12:27:02;100018.06;;;-2.71;100.00
36092;BME280;22147;52.388;13.390;2022-11-21T12:33:23;100012.34;;;-2.69;100.00
36092;BME280;22147;52.388;13.390;2022-11-21T12:36:39;100019.47;;;-2.63;100.00
36092;BME280;22147;52.388;13.390;2022-11-21T12:45:51;100015.22;;;-2.54;100.00
36092;BME280;22147;52.388;13.390;2022-11-21T12:49:25;100010.59;;;-2.53;100.00
36092;BME280;22147;52.388;13.390;2022-11-21T12:53:10;100008.38;;;-2.56;100.00
36092;BME280;22147;52.388;13.390;2022-11-21T12:56:49;100011.47;;;-2.48;100.00
36092;BME280;22147;52.388;13.390;2022-11-21T12:59:25;100012.38;;;-2.37;100.00
36092;BME280;22147;52.388;13.390;2022-11-21T13:02:25;99995.75;;;-2.35;100.00
36092;BME280;22147;52.388;13.390;2022-11-21T13:05:12;100001.78;;;-2.33;100.00
36092;BME280;22147;52.388;13.390;2022-11-21T13:08:15;100001.81;;;-2.28;100.00
36092;BME280;22147;52.388;13.390;2022-11-21T13:20:52;99991.75;;;-2.28;100.00
36092;BME280;22147;52.388;13.390;2022-11-21T13:23:41;99987.47;;;-2.18;100.00
36092;BME280;22147;52.388;13.390;2022-11-21T13:29:14;99991.75;;;-2.28;100.00
36092;BME280;22147;52.388;13.390;2022-11-21T13:31:42;99984.72;;;-2.23;100.00
36092;BME280;22147;52.388;13.390;2022-11-21T13:34:45;99991.53;;;-2.21;100.00
36092;BME280;22147;52.388;13.390;2022-11-21T13:37:59;99991.19;;;-2.30;100.00
36092;BME280;22147;52.388;13.390;2022-11-21T13:40:39;99990.94;;;-2.28;100.00
36092;BME280;22147;52.388;13.390;2022-11-21T13:43:29;99985.50;;;-2.28;100.00
36092;BME280;22147;52.388;13.390;2022-11-21T13:46:03;99982.25;;;-2.25;100.00
36092;BME280;22147;52.388;13.390;2022-11-21T13:49:09;99976.78;;;-2.30;100.00
36092;BME280;22147;52.388;13.390;2022-11-21T13:51:53;99983.47;;;-2.43;100.00
36092;BME280;22147;52.388;13.390;2022-11-21T14:00:48;99965.66;;;-2.23;100.00
36092;BME280;22147;52.388;13.390;2022-11-21T14:06:43;99952.72;;;-2.06;100.00
36092;BME280;22147;52.388;13.390;2022-11-21T14:09:35;99965.03;;;-1.93;100.00
36092;BME280;22147;52.388;13.390;2022-11-21T14:12:34;99964.56;;;-2.28;100.00
36092;BME280;22147;52.388;13.390;2022-11-21T14:15:31;99969.59;;;-2.47;100.00
36092;BME280;22147;52.388;13.390;2022-11-21T14:18:24;99958.22;;;-2.38;100.00
36092;BME280;22147;52.388;13.390;2022-11-21T14:21:00;99961.81;;;-2.33;100.00
36092;BME280;22147;52.388;13.390;2022-11-21T14:23:34;99960.72;;;-2.27;100.00
36092;BME280;22147;52.388;13.390;2022-11-21T14:26:19;99962.16;;;-2.19;100.00
36092;BME280;22147;52.388;13.390;2022-11-21T14:28:50;99957.41;;;-2.39;100.00
36092;BME280;22147;52.388;13.390;2022-11-21T14:31:21;99954.88;;;-2.46;100.00
36092;BME280;22147;52.388;13.390;2022-11-21T14:33:55;99939.66;;;-2.47;100.00
36092;BME280;22147;52.388;13.390;2022-11-21T14:36:27;99936.63;;;-2.50;100.00
36092;BME280;22147;52.388;13.390;2022-11-21T14:39:07;99939.91;;;-2.48;100.00
36092;BME280;22147;52.388;13.390;2022-11-21T14:42:12;99942.13;;;-2.45;100.00
36092;BME280;22147;52.388;13.390;2022-11-21T14:44:44;99935.34;;;-2.42;100.00
36092;BME280;22147;52.388;13.390;2022-11-21T14:47:19;99939.13;;;-2.43;100.00
36092;BME280;22147;52.388;13.390;2022-11-21T14:49:55;99947.03;;;-2.42;100.00
36092;BME280;22147;52.388;13.390;2022-11-21T14:52:32;99948.28;;;-2.60;100.00
36092;BME280;22147;52.388;13.390;2022-11-21T14:55:27;99957.16;;;-2.70;100.00
36092;BME280;22147;52.388;13.390;2022-11-21T14:58:02;99959.63;;;-2.68;100.00
36092;BME280;22147;52.388;13.390;2022-11-21T15:00:32;99954.78;;;-2.61;100.00